仙台空港の過去48時間の天気

仙台空港 (Sendai)

現在時刻: 7/17 18:27 JST (7/17 09:27 UTC) 以下の時間は現地時間です。

過去48時間のMETAR気象情報
時間 風向 風速(m/s) 視程 気温(℃) 湿度(%) 気圧(hPa) 天気現象
17 18:00 東北東 4 10km以上 26 100 1009
17 17:00 北東 2 10km以上 27 100 1009
17 16:00 東南東 3 10km以上 27 100 1009
17 15:00 東南東 4 10km以上 28 100 1009
17 14:00 南東 4 10km以上 28 100 1009
17 13:00 東南東 4 10km以上 29 79 1009
17 12:00 南東 2 10km以上 29 89 1009
17 11:00 南南東 2 10km以上 28 100 1010
17 10:00 南南東 2 10km以上 28 100 1010
17 09:00 東南東 3 10km以上 27 100 1010
17 08:00 不定 1 10km以上 25 100 1011 弱いしゅう雨
17 07:00 不定 1 10km以上 24 100 1011
17 06:00 不定 1 10km以上 23 100 1010
17 05:30 1 10km以上 23 100 1011
RJSS 170900Z 06007KT 9999 FEW030 SCT100 BKN/// 26/26 Q1009
RJSS 170800Z 05004KT 9999 FEW030 SCT150 BKN/// 27/27 Q1009
RJSS 170700Z 12005KT 9999 FEW030 BKN/// 27/27 Q1009
RJSS 170600Z 12008KT 9999 FEW030 SCT150 28/28 Q1009
RJSS 170500Z 13008KT 9999 FEW030 SCT150 BKN/// 28/28 Q1009
RJSS 170400Z 12007KT 9999 FEW030 SCT150 BKN/// 29/25 Q1009
RJSS 170300Z 14004KT 9999 FEW030 SCT150 BKN/// 29/27 Q1009
RJSS 170200Z 16004KT 9999 FEW030 SCT130 BKN150 28/28 Q1010
RJSS 170100Z 15004KT 110V170 9999 FEW030 BKN140 28/28 Q1010
RJSS 170000Z 12005KT 9999 FEW030 SCT050 BKN150 27/27 Q1010
RJSS 162300Z VRB01KT 9999 -SHRA FEW030 SCT050 BKN160 25/25 Q1011
RJSS 162200Z VRB01KT 9999 FEW008 SCT050 BKN160 24/24 Q1011
RJSS 162100Z VRB02KT 9999 FEW005 SCT050 BKN150 23/23 Q1010
RJSS 162030Z 36001KT 9999 FEW010 BKN160 BKN180 23/23 Q1011 RMK 1ST010 5AC160 7AC180 A2985